Time;durP1;ratioP1;P1;durP2;ratioP2;P2;SDS_P1;SDS_P2;PMS_P1;PMS_P2;Temp;Humidity;BMP_temperature;BMP_pressure;BME280_temperature;BME280_humidity;BME280_pressure;Samples;Min_cycle;Max_cycle;Signal;HPM_P1;HPM_P2
2022/12/24 00:01:43;;;;;;;32.28;14.50;;;;;;;;;;5029282;28;20116;-63
2022/12/24 00:04:09;;;;;;;35.35;16.42;;;;;;;;;;5016346;28;20064;-63
2022/12/24 00:06:35;;;;;;;35.95;16.70;;;;;;;;;;5025082;28;20079;-64
2022/12/24 00:09:01;;;;;;;31.55;15.50;;;;;;;;;;5021037;28;20496;-63
2022/12/24 00:11:27;;;;;;;37.45;16.88;;;;;;;;;;5027166;28;20077;-63
2022/12/24 00:13:53;;;;;;;31.77;16.20;;;;;;;;;;5031725;28;20084;-63
2022/12/24 00:16:19;;;;;;;37.08;16.48;;;;;;;;;;5033075;28;20037;-63
2022/12/24 00:18:45;;;;;;;34.92;15.98;;;;;;;;;;5023290;28;20111;-63
2022/12/24 00:21:11;;;;;;;34.33;16.27;;;;;;;;;;5023408;28;20045;-63
2022/12/24 00:23:37;;;;;;;29.63;14.45;;;;;;;;;;5023668;28;20049;-63
2022/12/24 00:26:03;;;;;;;33.20;15.43;;;;;;;;;;5025886;28;20057;-63
2022/12/24 00:28:29;;;;;;;30.65;15.00;;;;;;;;;;5029392;28;20491;-63
2022/12/24 00:30:55;;;;;;;31.48;15.52;;;;;;;;;;5028424;28;20091;-63
2022/12/24 00:33:22;;;;;;;31.05;15.30;;;;;;;;;;5031320;28;20505;-63
2022/12/24 00:35:50;;;;;;;36.42;15.75;;;;;;;;;;5030791;28;20498;-63
2022/12/24 00:38:16;;;;;;;38.22;17.23;;;;;;;;;;5019356;28;20068;-63
2022/12/24 00:40:42;;;;;;;34.78;15.13;;;;;;;;;;5023195;28;20046;-63
2022/12/24 00:43:08;;;;;;;37.53;17.85;;;;;;;;;;5022965;28;20060;-63
2022/12/24 00:45:34;;;;;;;40.80;16.70;;;;;;;;;;5026216;28;20045;-63
2022/12/24 00:48:00;;;;;;;41.25;15.25;;;;;;;;;;5028651;28;20508;-63
2022/12/24 00:50:26;;;;;;;35.33;14.55;;;;;;;;;;5021327;28;20046;-63
2022/12/24 00:52:51;;;;;;;36.03;12.27;;;;;;;;;;5023782;28;20040;-63
2022/12/24 00:55:17;;;;;;;30.05;12.57;;;;;;;;;;5023695;28;20042;-63
2022/12/24 00:57:43;;;;;;;25.58;10.98;;;;;;;;;;5013517;28;20515;-64
2022/12/24 01:00:10;;;;;;;26.65;11.85;;;;;;;;;;5018383;28;20033;-63
2022/12/24 01:02:36;;;;;;;27.42;11.65;;;;;;;;;;5027815;28;20041;-63
2022/12/24 01:05:11;;;;;;;22.83;10.77;;;;;;;;;;5026944;28;20088;-63
2022/12/24 01:07:38;;;;;;;26.73;10.80;;;;;;;;;;5021876;28;20041;-63
2022/12/24 01:10:04;;;;;;;20.10;9.63;;;;;;;;;;5031599;28;20060;-63
2022/12/24 01:12:30;;;;;;;18.98;9.45;;;;;;;;;;5016736;28;20038;-63
2022/12/24 01:14:56;;;;;;;14.70;7.18;;;;;;;;;;5031724;28;20041;-63
2022/12/24 01:17:22;;;;;;;16.27;7.38;;;;;;;;;;5030112;28;20048;-63
2022/12/24 01:19:48;;;;;;;14.25;7.70;;;;;;;;;;5029417;28;20048;-63
2022/12/24 01:24:46;;;;;;;15.80;8.68;;;;;;;;;;5043217;28;20045;-67
2022/12/24 01:27:12;;;;;;;15.02;7.63;;;;;;;;;;5051304;28;20048;-67
2022/12/24 01:29:38;;;;;;;14.10;8.05;;;;;;;;;;5051617;28;20037;-67
2022/12/24 01:32:04;;;;;;;17.13;7.93;;;;;;;;;;5051582;28;20518;-67
2022/12/24 01:34:30;;;;;;;15.05;8.10;;;;;;;;;;5050233;28;20094;-67
2022/12/24 01:36:56;;;;;;;18.13;8.68;;;;;;;;;;5047768;28;20230;-67
2022/12/24 01:39:22;;;;;;;18.85;9.30;;;;;;;;;;5045533;28;20132;-67
2022/12/24 01:44:34;;;;;;;18.15;9.18;;;;;;;;;;5052237;28;20053;-67
2022/12/24 01:47:09;;;;;;;18.30;8.00;;;;;;;;;;5046664;28;20163;-67
2022/12/24 01:49:37;;;;;;;19.58;8.45;;;;;;;;;;5052274;28;20048;-67
2022/12/24 01:52:12;;;;;;;16.13;8.27;;;;;;;;;;5050062;28;20108;-67
2022/12/24 01:54:43;;;;;;;15.98;8.13;;;;;;;;;;5050475;28;20025;-67
2022/12/24 01:57:13;;;;;;;20.50;9.43;;;;;;;;;;5049075;28;20075;-67
2022/12/24 01:59:41;;;;;;;16.58;7.97;;;;;;;;;;5052168;28;20033;-67
2022/12/24 02:02:08;;;;;;;17.30;8.57;;;;;;;;;;5046053;28;20136;-67
2022/12/24 02:04:40;;;;;;;16.45;7.95;;;;;;;;;;5051659;28;20449;-67
2022/12/24 02:07:06;;;;;;;13.02;7.45;;;;;;;;;;5048466;28;20518;-67
2022/12/24 02:09:33;;;;;;;14.77;6.88;;;;;;;;;;5050238;28;20063;-67
2022/12/24 02:11:59;;;;;;;12.40;5.97;;;;;;;;;;5051984;28;20048;-67
2022/12/24 02:14:27;;;;;;;10.68;4.03;;;;;;;;;;5051911;28;20112;-67
2022/12/24 02:16:59;;;;;;;9.18;3.63;;;;;;;;;;5047688;28;20387;-67
2022/12/24 02:19:34;;;;;;;4.60;2.65;;;;;;;;;;5045171;28;20462;-67
2022/12/24 02:22:07;;;;;;;8.85;2.92;;;;;;;;;;5050105;28;20112;-67
2022/12/24 02:24:51;;;;;;;10.55;2.75;;;;;;;;;;5049004;28;20072;-69
2022/12/24 02:27:36;;;;;;;12.43;3.17;;;;;;;;;;5050123;28;20048;-68
2022/12/24 02:30:06;;;;;;;23.40;4.50;;;;;;;;;;5047304;28;20046;-68
2022/12/24 02:32:34;;;;;;;24.02;5.55;;;;;;;;;;5044152;28;20041;-68
2022/12/24 02:35:08;;;;;;;27.30;6.32;;;;;;;;;;5051429;28;20032;-68
2022/12/24 02:37:36;;;;;;;19.98;5.40;;;;;;;;;;5044333;28;20099;-68
2022/12/24 02:40:11;;;;;;;37.50;6.13;;;;;;;;;;5048440;28;20041;-68
2022/12/24 02:42:46;;;;;;;36.45;5.35;;;;;;;;;;5050001;28;20049;-68
2022/12/24 02:45:17;;;;;;;33.55;5.93;;;;;;;;;;5044367;28;20051;-68
2022/12/24 02:47:44;;;;;;;31.00;5.53;;;;;;;;;;5049617;28;20045;-68
2022/12/24 02:50:12;;;;;;;37.08;5.45;;;;;;;;;;5050320;28;20402;-68
2022/12/24 02:52:40;;;;;;;28.33;5.28;;;;;;;;;;5048096;28;20069;-67
2022/12/24 02:55:12;;;;;;;34.47;5.40;;;;;;;;;;5051135;28;20486;-67
2022/12/24 02:57:54;;;;;;;37.55;5.30;;;;;;;;;;5050558;28;20041;-68
2022/12/24 03:00:22;;;;;;;32.28;4.75;;;;;;;;;;5048085;28;20114;-67
2022/12/24 03:03:06;;;;;;;35.03;4.97;;;;;;;;;;5048245;28;20079;-67
2022/12/24 03:05:35;;;;;;;26.77;4.57;;;;;;;;;;5048271;28;20069;-67
2022/12/24 03:08:07;;;;;;;33.83;5.45;;;;;;;;;;5049458;28;20049;-67
2022/12/24 03:10:41;;;;;;;23.38;4.47;;;;;;;;;;5050259;28;20052;-67
2022/12/24 03:13:10;;;;;;;24.70;4.50;;;;;;;;;;5050551;28;20123;-67
2022/12/24 03:15:36;;;;;;;35.25;5.53;;;;;;;;;;5050711;28;20120;-67
2022/12/24 03:18:03;;;;;;;32.53;5.38;;;;;;;;;;5043187;28;20057;-67
2022/12/24 03:20:35;;;;;;;31.55;4.60;;;;;;;;;;5048592;28;20068;-67
2022/12/24 03:23:01;;;;;;;31.55;3.90;;;;;;;;;;5050489;28;20124;-67
2022/12/24 03:25:27;;;;;;;23.63;4.45;;;;;;;;;;5051262;28;20073;-67
2022/12/24 03:27:54;;;;;;;25.15;4.30;;;;;;;;;;5050866;28;20033;-67
2022/12/24 03:30:21;;;;;;;24.27;4.10;;;;;;;;;;5054096;28;20116;-67
2022/12/24 03:32:47;;;;;;;20.83;3.58;;;;;;;;;;5051060;28;20064;-67
2022/12/24 03:35:13;;;;;;;22.63;3.65;;;;;;;;;;5053046;28;20037;-67
2022/12/24 03:37:39;;;;;;;30.55;4.65;;;;;;;;;;5053140;28;20084;-67
2022/12/24 03:40:06;;;;;;;40.90;5.10;;;;;;;;;;5048821;28;20155;-67
2022/12/24 03:42:32;;;;;;;31.00;4.68;;;;;;;;;;5042500;28;20049;-67
2022/12/24 03:44:58;;;;;;;27.88;5.03;;;;;;;;;;5050144;28;20045;-66
2022/12/24 03:47:24;;;;;;;35.00;6.00;;;;;;;;;;5050440;28;20037;-67
2022/12/24 03:49:50;;;;;;;33.10;5.28;;;;;;;;;;5052452;28;20047;-67
2022/12/24 03:52:16;;;;;;;29.67;5.53;;;;;;;;;;5053256;28;20045;-67
2022/12/24 03:54:42;;;;;;;27.23;5.10;;;;;;;;;;5045706;28;20041;-68
2022/12/24 03:57:08;;;;;;;28.65;5.10;;;;;;;;;;5053750;28;20040;-67
2022/12/24 03:59:34;;;;;;;34.05;5.47;;;;;;;;;;5052172;28;20041;-68
2022/12/24 04:02:00;;;;;;;31.95;4.93;;;;;;;;;;5045322;28;20063;-67
2022/12/24 04:04:26;;;;;;;28.25;5.57;;;;;;;;;;5052061;28;20107;-67
2022/12/24 04:06:52;;;;;;;39.50;4.85;;;;;;;;;;5052849;28;20667;-67
2022/12/24 04:09:18;;;;;;;34.00;4.85;;;;;;;;;;5052981;28;20052;-67
2022/12/24 04:11:44;;;;;;;31.02;4.95;;;;;;;;;;5052143;28;20079;-67
2022/12/24 04:14:10;;;;;;;39.53;5.45;;;;;;;;;;5051717;28;20479;-67
2022/12/24 04:16:36;;;;;;;32.30;4.95;;;;;;;;;;5053364;28;20032;-67
2022/12/24 04:19:02;;;;;;;31.33;4.55;;;;;;;;;;5052129;28;20486;-67
2022/12/24 04:21:28;;;;;;;44.10;4.90;;;;;;;;;;5046721;28;20060;-67
2022/12/24 04:23:54;;;;;;;35.65;5.90;;;;;;;;;;5052105;28;20045;-67
2022/12/24 04:26:20;;;;;;;36.28;5.50;;;;;;;;;;5050547;28;20057;-67
2022/12/24 04:28:46;;;;;;;30.98;5.50;;;;;;;;;;5043158;28;20526;-67
2022/12/24 04:31:13;;;;;;;36.72;5.10;;;;;;;;;;5053502;28;20120;-67
2022/12/24 04:33:39;;;;;;;34.67;5.47;;;;;;;;;;5052114;28;20036;-67
2022/12/24 04:36:06;;;;;;;37.38;6.00;;;;;;;;;;5053300;28;21036;-67
2022/12/24 04:38:33;;;;;;;39.45;5.25;;;;;;;;;;5052048;28;20482;-67
2022/12/24 04:41:03;;;;;;;35.60;5.65;;;;;;;;;;5051814;28;20124;-67
2022/12/24 04:43:29;;;;;;;38.05;5.57;;;;;;;;;;5052044;28;20470;-67
2022/12/24 04:45:56;;;;;;;30.42;5.00;;;;;;;;;;5051596;28;20457;-67
2022/12/24 04:48:22;;;;;;;36.72;6.22;;;;;;;;;;5051565;28;20033;-67
2022/12/24 04:50:48;;;;;;;36.83;5.82;;;;;;;;;;5051739;28;20045;-67
2022/12/24 04:53:14;;;;;;;36.75;5.25;;;;;;;;;;5046546;28;20111;-67
2022/12/24 04:55:46;;;;;;;37.85;5.85;;;;;;;;;;5045287;28;20128;-67
2022/12/24 04:58:12;;;;;;;43.83;6.00;;;;;;;;;;5044531;28;20029;-67
2022/12/24 05:00:39;;;;;;;33.28;5.25;;;;;;;;;;5041681;28;20033;-67
2022/12/24 05:03:05;;;;;;;31.95;5.45;;;;;;;;;;5042324;28;20091;-67
2022/12/24 05:05:31;;;;;;;31.77;5.40;;;;;;;;;;5051196;28;20041;-67
2022/12/24 05:07:57;;;;;;;42.15;5.95;;;;;;;;;;5050226;28;20041;-67
2022/12/24 05:10:23;;;;;;;33.03;5.93;;;;;;;;;;5047725;28;20063;-67
2022/12/24 05:12:49;;;;;;;39.15;6.00;;;;;;;;;;5054689;28;20451;-67
2022/12/24 05:15:15;;;;;;;37.00;5.55;;;;;;;;;;5051924;28;20048;-67
2022/12/24 05:17:41;;;;;;;31.67;5.50;;;;;;;;;;5043583;28;20033;-67
2022/12/24 05:20:07;;;;;;;33.58;5.35;;;;;;;;;;5052632;28;20585;-67
2022/12/24 05:28:03;;;;;;;38.42;5.72;;;;;;;;;;5044649;28;20043;-69
2022/12/24 05:30:29;;;;;;;44.90;6.35;;;;;;;;;;5068528;28;20125;-69
2022/12/24 05:32:55;;;;;;;29.20;6.10;;;;;;;;;;5047009;28;20091;-69
2022/12/24 05:35:21;;;;;;;33.60;5.47;;;;;;;;;;5045272;28;20037;-69
2022/12/24 05:37:47;;;;;;;37.28;5.55;;;;;;;;;;5047917;28;20099;-69
2022/12/24 05:40:13;;;;;;;35.25;5.57;;;;;;;;;;5049238;28;20048;-69
2022/12/24 05:42:39;;;;;;;36.25;6.45;;;;;;;;;;5050463;28;20087;-69
2022/12/24 05:45:05;;;;;;;34.53;5.53;;;;;;;;;;5047079;28;20037;-69
2022/12/24 05:47:31;;;;;;;40.33;5.97;;;;;;;;;;5049771;28;20056;-69
2022/12/24 05:49:57;;;;;;;40.53;6.40;;;;;;;;;;5051877;28;20726;-69
2022/12/24 05:52:23;;;;;;;38.58;6.30;;;;;;;;;;5042490;28;20922;-67
2022/12/24 05:54:49;;;;;;;37.03;5.78;;;;;;;;;;5049280;28;20120;-68
2022/12/24 05:57:15;;;;;;;39.30;6.60;;;;;;;;;;5050577;28;20171;-67
2022/12/24 05:59:41;;;;;;;36.35;6.10;;;;;;;;;;5052493;28;20040;-67
2022/12/24 06:02:07;;;;;;;39.58;5.75;;;;;;;;;;5049216;28;20047;-67
2022/12/24 06:04:33;;;;;;;37.75;5.43;;;;;;;;;;5052253;28;20045;-67
2022/12/24 06:06:59;;;;;;;38.25;5.57;;;;;;;;;;5051331;28;20044;-67
2022/12/24 06:09:25;;;;;;;33.80;6.65;;;;;;;;;;5048884;28;20037;-68
2022/12/24 06:11:51;;;;;;;41.00;5.95;;;;;;;;;;5049975;28;20445;-68
2022/12/24 06:14:17;;;;;;;35.97;5.35;;;;;;;;;;5051348;28;20541;-67
2022/12/24 06:16:43;;;;;;;38.13;6.18;;;;;;;;;;5042603;28;20033;-67
2022/12/24 06:19:09;;;;;;;36.35;6.60;;;;;;;;;;5045571;28;20060;-67
2022/12/24 06:21:35;;;;;;;34.30;5.35;;;;;;;;;;5045935;28;20037;-67
2022/12/24 06:24:01;;;;;;;33.33;5.20;;;;;;;;;;5050848;28;20044;-68
2022/12/24 06:26:27;;;;;;;44.33;6.13;;;;;;;;;;5048640;28;20037;-68
2022/12/24 06:28:53;;;;;;;40.53;5.68;;;;;;;;;;5042801;28;20041;-67
2022/12/24 06:31:20;;;;;;;27.83;5.07;;;;;;;;;;5050221;28;20049;-68
2022/12/24 06:33:47;;;;;;;34.88;6.30;;;;;;;;;;5050513;28;20047;-67
2022/12/24 06:36:18;;;;;;;38.20;4.85;;;;;;;;;;5041929;28;20045;-68
2022/12/24 06:38:44;;;;;;;34.65;5.40;;;;;;;;;;5049378;28;20036;-67
2022/12/24 06:41:10;;;;;;;30.13;5.03;;;;;;;;;;5045899;28;20076;-68
2022/12/24 06:43:36;;;;;;;37.10;6.20;;;;;;;;;;5046985;28;20056;-68
2022/12/24 06:46:03;;;;;;;32.97;5.28;;;;;;;;;;5049704;28;20037;-67
2022/12/24 06:48:29;;;;;;;35.15;5.65;;;;;;;;;;5050531;28;20044;-67
2022/12/24 06:50:55;;;;;;;29.70;5.18;;;;;;;;;;5048408;28;20392;-67
2022/12/24 06:53:22;;;;;;;35.60;5.22;;;;;;;;;;5048550;28;20040;-67
2022/12/24 06:55:48;;;;;;;30.90;5.28;;;;;;;;;;5047225;28;20484;-67
2022/12/24 06:58:14;;;;;;;31.20;4.22;;;;;;;;;;5050838;28;20064;-67
2022/12/24 07:00:40;;;;;;;29.10;4.70;;;;;;;;;;5050046;28;20047;-67
2022/12/24 07:03:06;;;;;;;36.00;5.35;;;;;;;;;;5040471;28;20037;-67
2022/12/24 07:05:32;;;;;;;30.58;4.22;;;;;;;;;;5048608;28;20037;-68
2022/12/24 07:07:58;;;;;;;28.75;4.95;;;;;;;;;;5051642;28;20048;-68
2022/12/24 07:10:24;;;;;;;32.83;5.35;;;;;;;;;;5045635;28;20041;-67
2022/12/24 07:12:50;;;;;;;23.83;4.55;;;;;;;;;;5052885;28;20049;-68
2022/12/24 07:15:16;;;;;;;28.58;4.80;;;;;;;;;;5055268;28;20465;-67
2022/12/24 07:17:42;;;;;;;33.88;4.85;;;;;;;;;;5055311;28;20405;-67
2022/12/24 07:20:11;;;;;;;34.58;4.70;;;;;;;;;;5054227;28;20387;-67
2022/12/24 07:22:37;;;;;;;28.55;4.68;;;;;;;;;;5044283;28;20546;-67
2022/12/24 07:25:03;;;;;;;29.15;4.85;;;;;;;;;;5053077;28;20208;-67
2022/12/24 07:27:30;;;;;;;24.88;4.55;;;;;;;;;;5051991;28;20045;-68
2022/12/24 07:29:56;;;;;;;29.00;5.28;;;;;;;;;;5053431;28;20052;-67
2022/12/24 07:32:22;;;;;;;30.25;5.03;;;;;;;;;;5052043;28;20041;-67
2022/12/24 07:34:48;;;;;;;24.15;4.70;;;;;;;;;;5059824;22;20112;-63
2022/12/24 07:37:14;;;;;;;26.67;4.55;;;;;;;;;;5050688;28;20119;-63
2022/12/24 07:39:40;;;;;;;26.23;4.13;;;;;;;;;;5049104;28;20080;-63
2022/12/24 07:42:06;;;;;;;31.30;4.63;;;;;;;;;;5050700;28;20073;-63
2022/12/24 07:44:33;;;;;;;28.08;4.60;;;;;;;;;;5053236;28;20517;-62
2022/12/24 07:46:59;;;;;;;30.00;5.85;;;;;;;;;;5046843;28;20511;-63
2022/12/24 07:49:25;;;;;;;26.77;4.78;;;;;;;;;;5029993;28;20072;-63
2022/12/24 07:51:51;;;;;;;31.42;5.57;;;;;;;;;;5026681;28;20379;-63
2022/12/24 07:54:17;;;;;;;23.23;4.28;;;;;;;;;;5053454;28;20128;-63
2022/12/24 07:56:43;;;;;;;28.13;5.32;;;;;;;;;;5052940;28;20079;-63
2022/12/24 07:59:12;;;;;;;35.53;5.22;;;;;;;;;;5045560;28;20076;-63
2022/12/24 08:01:38;;;;;;;36.78;6.03;;;;;;;;;;5041334;28;20047;-63
2022/12/24 08:04:04;;;;;;;30.63;4.97;;;;;;;;;;5045021;28;20087;-63
2022/12/24 08:06:30;;;;;;;46.65;6.43;;;;;;;;;;5048667;28;20055;-63
2022/12/24 08:08:56;;;;;;;34.15;5.80;;;;;;;;;;5049914;28;20037;-64
2022/12/24 08:11:22;;;;;;;33.20;5.78;;;;;;;;;;5048893;28;20037;-63
2022/12/24 08:13:48;;;;;;;42.38;5.05;;;;;;;;;;5050125;28;20106;-63
2022/12/24 08:16:14;;;;;;;36.67;5.50;;;;;;;;;;5047585;28;20116;-64
2022/12/24 08:18:40;;;;;;;36.88;5.28;;;;;;;;;;5036085;28;20041;-64
2022/12/24 08:21:07;;;;;;;31.80;5.22;;;;;;;;;;5035603;28;20094;-64
2022/12/24 08:23:33;;;;;;;35.38;5.82;;;;;;;;;;5047180;28;20049;-63
2022/12/24 08:25:59;;;;;;;38.70;6.22;;;;;;;;;;5041814;28;20068;-64
2022/12/24 08:28:25;;;;;;;42.70;6.63;;;;;;;;;;5049512;28;20048;-64
2022/12/24 08:30:51;;;;;;;33.38;5.70;;;;;;;;;;5041660;28;20029;-64
2022/12/24 08:33:18;;;;;;;37.08;5.75;;;;;;;;;;5052684;28;20400;-64
2022/12/24 08:35:50;;;;;;;31.27;5.93;;;;;;;;;;5048531;28;20037;-64
2022/12/24 08:38:17;;;;;;;41.50;6.00;;;;;;;;;;5038421;28;20052;-63
2022/12/24 08:40:43;;;;;;;38.58;6.20;;;;;;;;;;5049147;28;20041;-63
2022/12/24 08:43:09;;;;;;;41.10;5.93;;;;;;;;;;5040554;28;20044;-64
2022/12/24 08:45:35;;;;;;;33.45;6.75;;;;;;;;;;5051332;28;20033;-64
2022/12/24 08:48:01;;;;;;;39.70;7.05;;;;;;;;;;5044311;28;20056;-64
2022/12/24 08:50:27;;;;;;;36.40;6.15;;;;;;;;;;5044518;28;20095;-63
2022/12/24 08:52:53;;;;;;;36.95;5.82;;;;;;;;;;5050958;28;20041;-64
2022/12/24 08:55:19;;;;;;;40.72;7.45;;;;;;;;;;5049621;28;20037;-63
2022/12/24 08:57:45;;;;;;;33.00;6.50;;;;;;;;;;5040602;28;20036;-63
2022/12/24 09:00:12;;;;;;;40.30;6.65;;;;;;;;;;5042770;28;20037;-64
2022/12/24 09:02:38;;;;;;;45.10;6.75;;;;;;;;;;5044334;28;20045;-64
2022/12/24 09:05:04;;;;;;;31.90;6.80;;;;;;;;;;5041947;28;20124;-64
2022/12/24 09:07:30;;;;;;;39.35;6.88;;;;;;;;;;5045918;28;20037;-64
2022/12/24 09:09:56;;;;;;;31.95;6.32;;;;;;;;;;5042504;28;20046;-63
2022/12/24 09:12:22;;;;;;;40.08;7.22;;;;;;;;;;5045002;28;20041;-64
2022/12/24 09:14:50;;;;;;;30.33;6.68;;;;;;;;;;5036754;28;20491;-64
2022/12/24 09:17:16;;;;;;;38.38;7.25;;;;;;;;;;5040409;28;20041;-63
2022/12/24 09:19:42;;;;;;;36.97;6.93;;;;;;;;;;5048009;28;20037;-64
2022/12/24 09:22:08;;;;;;;36.03;7.07;;;;;;;;;;5031201;28;20037;-63
2022/12/24 09:24:35;;;;;;;39.03;7.28;;;;;;;;;;5047199;28;20033;-64
2022/12/24 09:27:02;;;;;;;39.30;7.68;;;;;;;;;;5050497;28;20063;-63
2022/12/24 09:29:28;;;;;;;34.17;7.03;;;;;;;;;;5042870;28;20733;-64
2022/12/24 09:31:55;;;;;;;37.67;6.50;;;;;;;;;;5043675;28;20048;-64
2022/12/24 09:34:21;;;;;;;39.10;6.85;;;;;;;;;;5051712;28;20037;-64
2022/12/24 09:36:47;;;;;;;43.78;7.18;;;;;;;;;;5035975;28;20380;-63
2022/12/24 09:39:13;;;;;;;34.80;6.90;;;;;;;;;;5051295;28;20506;-64
2022/12/24 09:41:58;;;;;;;39.08;6.85;;;;;;;;;;5050495;28;20045;-63
2022/12/24 09:44:44;;;;;;;38.58;6.30;;;;;;;;;;5038815;28;20090;-64
2022/12/24 09:47:19;;;;;;;35.40;5.82;;;;;;;;;;5010444;28;20052;-64
2022/12/24 09:49:47;;;;;;;30.40;5.85;;;;;;;;;;5047945;28;20107;-64
2022/12/24 09:52:16;;;;;;;36.47;7.00;;;;;;;;;;5046524;28;20045;-64
2022/12/24 09:54:44;;;;;;;37.95;7.28;;;;;;;;;;5046813;28;20514;-64
2022/12/24 09:57:32;;;;;;;40.83;7.00;;;;;;;;;;5036972;28;20049;-64
2022/12/24 09:59:58;;;;;;;41.47;6.95;;;;;;;;;;5035563;28;20208;-65
2022/12/24 10:02:24;;;;;;;34.17;6.50;;;;;;;;;;5030352;28;20068;-65
2022/12/24 10:04:50;;;;;;;32.72;6.60;;;;;;;;;;5042036;28;20574;-64
2022/12/24 10:07:35;;;;;;;38.08;6.65;;;;;;;;;;5038943;28;20517;-65
2022/12/24 10:10:01;;;;;;;35.58;6.07;;;;;;;;;;5042125;28;20038;-64
2022/12/24 10:12:28;;;;;;;31.75;6.38;;;;;;;;;;5045193;28;20038;-64
2022/12/24 10:15:13;;;;;;;27.25;4.80;;;;;;;;;;5040788;28;20049;-64
2022/12/24 10:17:47;;;;;;;21.77;5.13;;;;;;;;;;5040623;28;20053;-64
2022/12/24 10:20:25;;;;;;;28.45;5.00;;;;;;;;;;5050042;28;20073;-64
2022/12/24 10:23:20;;;;;;;27.90;5.78;;;;;;;;;;5045225;28;20060;-64
2022/12/24 10:25:53;;;;;;;27.08;4.72;;;;;;;;;;5015091;28;20054;-64
2022/12/24 10:28:23;;;;;;;25.25;4.43;;;;;;;;;;5037995;28;20045;-64
2022/12/24 10:30:50;;;;;;;31.73;5.18;;;;;;;;;;5043066;28;20041;-64
2022/12/24 10:33:19;;;;;;;27.08;5.32;;;;;;;;;;5040612;28;20586;-64
2022/12/24 10:35:47;;;;;;;23.58;4.82;;;;;;;;;;5045167;28;20040;-64
2022/12/24 10:38:13;;;;;;;29.35;4.75;;;;;;;;;;5047467;28;20082;-64
2022/12/24 10:40:43;;;;;;;22.25;5.63;;;;;;;;;;5041137;28;20060;-65
2022/12/24 10:43:14;;;;;;;32.42;5.15;;;;;;;;;;5044841;28;20037;-64
2022/12/24 10:45:43;;;;;;;33.75;5.53;;;;;;;;;;5037279;28;20134;-64
2022/12/24 10:48:28;;;;;;;29.40;5.28;;;;;;;;;;5041022;28;20041;-65
2022/12/24 10:50:59;;;;;;;38.58;6.28;;;;;;;;;;5038816;28;20037;-65
2022/12/24 10:54:05;;;;;;;29.45;5.95;;;;;;;;;;5040062;28;20036;-64
2022/12/24 10:56:31;;;;;;;35.15;6.40;;;;;;;;;;4969632;28;20039;-64
2022/12/24 10:58:57;;;;;;;32.30;6.05;;;;;;;;;;4965344;28;20047;-64
2022/12/24 11:01:42;;;;;;;34.25;6.30;;;;;;;;;;5004743;28;20614;-64
2022/12/24 11:04:14;;;;;;;29.75;6.50;;;;;;;;;;5046143;28;20375;-64
2022/12/24 11:06:52;;;;;;;34.80;6.53;;;;;;;;;;5026908;28;20086;-64
2022/12/24 11:09:21;;;;;;;30.95;6.13;;;;;;;;;;5039613;28;20038;-65
2022/12/24 11:11:47;;;;;;;32.13;7.03;;;;;;;;;;5040352;28;20522;-64
2022/12/24 11:14:15;;;;;;;36.15;7.13;;;;;;;;;;5034506;28;20102;-64
2022/12/24 11:16:48;;;;;;;37.55;7.25;;;;;;;;;;5038614;28;20511;-64
2022/12/24 11:19:17;;;;;;;36.67;6.38;;;;;;;;;;5046085;28;20671;-64
2022/12/24 11:21:43;;;;;;;34.05;7.03;;;;;;;;;;5037744;28;20069;-64
2022/12/24 11:24:12;;;;;;;37.50;7.20;;;;;;;;;;5034834;28;20048;-64
2022/12/24 11:26:39;;;;;;;37.10;6.80;;;;;;;;;;5043290;28;20048;-64
2022/12/24 11:29:08;;;;;;;35.13;7.13;;;;;;;;;;5029704;28;20045;-64
2022/12/24 11:31:37;;;;;;;39.00;7.20;;;;;;;;;;5053616;28;20099;-63
2022/12/24 11:34:17;;;;;;;34.08;7.10;;;;;;;;;;5031222;28;20046;-64
2022/12/24 11:36:43;;;;;;;39.03;7.20;;;;;;;;;;5040820;28;20463;-64
2022/12/24 11:39:17;;;;;;;29.92;6.13;;;;;;;;;;5039729;28;20500;-64
2022/12/24 11:41:43;;;;;;;39.95;6.40;;;;;;;;;;5044579;28;20490;-64
2022/12/24 11:44:10;;;;;;;36.40;6.38;;;;;;;;;;5039986;28;20492;-64
2022/12/24 11:46:40;;;;;;;39.47;6.80;;;;;;;;;;5049311;28;20045;-64
2022/12/24 11:49:06;;;;;;;35.95;6.18;;;;;;;;;;5048914;28;20394;-64
2022/12/24 11:51:32;;;;;;;38.20;6.88;;;;;;;;;;5043384;28;20128;-64
2022/12/24 11:54:01;;;;;;;37.40;6.88;;;;;;;;;;5035804;28;20072;-64
2022/12/24 11:56:30;;;;;;;30.20;6.45;;;;;;;;;;5049497;28;20072;-64
2022/12/24 11:58:58;;;;;;;33.35;6.60;;;;;;;;;;5052947;28;20124;-64
2022/12/24 12:01:35;;;;;;;37.53;7.15;;;;;;;;;;5047856;28;20514;-64
2022/12/24 12:04:24;;;;;;;32.33;5.72;;;;;;;;;;5047608;28;20402;-64
2022/12/24 12:06:55;;;;;;;37.97;6.40;;;;;;;;;;5036521;28;20049;-64
2022/12/24 12:09:28;;;;;;;28.17;5.60;;;;;;;;;;5049197;28;20044;-63
2022/12/24 12:12:04;;;;;;;35.15;5.88;;;;;;;;;;5052111;28;20045;-64
2022/12/24 12:14:35;;;;;;;27.92;4.65;;;;;;;;;;5054375;28;20127;-63
2022/12/24 12:17:13;;;;;;;28.23;5.65;;;;;;;;;;5045950;28;20044;-64
2022/12/24 12:19:39;;;;;;;22.58;4.93;;;;;;;;;;5050123;28;20095;-63
2022/12/24 12:22:07;;;;;;;33.10;5.75;;;;;;;;;;5052104;28;20036;-64
2022/12/24 12:24:35;;;;;;;29.75;5.28;;;;;;;;;;5045669;28;20494;-65
2022/12/24 12:27:13;;;;;;;34.45;5.70;;;;;;;;;;5039856;28;20032;-64
2022/12/24 12:29:43;;;;;;;38.20;4.85;;;;;;;;;;5046091;28;20037;-63
2022/12/24 12:32:14;;;;;;;38.33;5.70;;;;;;;;;;5045054;28;20079;-63
2022/12/24 12:34:45;;;;;;;23.70;5.38;;;;;;;;;;5033924;28;20053;-64
2022/12/24 12:37:14;;;;;;;41.42;5.80;;;;;;;;;;5050303;28;20045;-64
2022/12/24 12:39:40;;;;;;;25.13;5.35;;;;;;;;;;5052437;28;20120;-64
2022/12/24 12:42:18;;;;;;;22.10;5.03;;;;;;;;;;5045766;28;20032;-63
2022/12/24 12:44:56;;;;;;;29.80;4.93;;;;;;;;;;5050345;28;20127;-63
2022/12/24 12:47:31;;;;;;;26.90;4.75;;;;;;;;;;5044185;28;20398;-63
2022/12/24 12:50:07;;;;;;;30.05;5.40;;;;;;;;;;5040652;28;20351;-63
2022/12/24 12:52:36;;;;;;;30.55;6.30;;;;;;;;;;5049717;28;20073;-64
2022/12/24 12:55:20;;;;;;;25.98;5.20;;;;;;;;;;5047709;28;20116;-63
2022/12/24 12:57:47;;;;;;;29.63;5.00;;;;;;;;;;5040649;28;20075;-64
2022/12/24 13:00:16;;;;;;;29.10;4.78;;;;;;;;;;5036920;28;20052;-64
2022/12/24 13:02:55;;;;;;;29.88;5.03;;;;;;;;;;5036785;28;20045;-63
2022/12/24 13:05:33;;;;;;;27.58;4.43;;;;;;;;;;5042985;28;20045;-64
2022/12/24 13:08:16;;;;;;;25.38;4.65;;;;;;;;;;5044017;28;20037;-64
2022/12/24 13:11:00;;;;;;;28.58;4.97;;;;;;;;;;5043092;28;20129;-64
2022/12/24 13:13:26;;;;;;;22.20;4.32;;;;;;;;;;5045682;28;20036;-63
2022/12/24 13:16:00;;;;;;;29.33;4.63;;;;;;;;;;5049875;28;20048;-64
2022/12/24 13:18:26;;;;;;;22.48;4.60;;;;;;;;;;5025226;28;20076;-64
2022/12/24 13:20:52;;;;;;;26.38;4.35;;;;;;;;;;5048904;28;20530;-64
2022/12/24 13:23:19;;;;;;;27.35;4.57;;;;;;;;;;5050065;28;20036;-63
2022/12/24 13:25:47;;;;;;;24.70;4.60;;;;;;;;;;5020402;28;20037;-64
2022/12/24 13:28:21;;;;;;;19.92;4.47;;;;;;;;;;5042777;28;20076;-64
2022/12/24 13:30:52;;;;;;;25.52;4.03;;;;;;;;;;5047785;28;20044;-64
2022/12/24 13:33:33;;;;;;;21.13;4.00;;;;;;;;;;5052272;22;20049;-65
2022/12/24 13:35:59;;;;;;;;;;;;;;;;;;5011676;28;20042;-65
2022/12/24 13:38:28;;;;;;;27.27;4.40;;;;;;;;;;5008664;28;19975;-65
2022/12/24 13:40:54;;;;;;;20.42;3.90;;;;;;;;;;5009238;28;20041;-65
2022/12/24 13:43:21;;;;;;;22.10;3.55;;;;;;;;;;5012064;28;20495;-65
2022/12/24 13:45:50;;;;;;;22.17;3.80;;;;;;;;;;5007965;28;20103;-66
2022/12/24 13:48:27;;;;;;;23.88;4.07;;;;;;;;;;5010511;28;20044;-65
2022/12/24 13:50:55;;;;;;;21.98;3.55;;;;;;;;;;5007942;28;20034;-65
2022/12/24 13:53:40;;;;;;;24.00;3.55;;;;;;;;;;4986552;28;20045;-66
2022/12/24 13:56:12;;;;;;;19.38;3.72;;;;;;;;;;5010233;28;20057;-65
2022/12/24 13:58:43;;;;;;;20.05;3.28;;;;;;;;;;5009305;28;21101;-66
2022/12/24 14:01:14;;;;;;;17.02;3.63;;;;;;;;;;5011717;28;20503;-66
2022/12/24 14:03:40;;;;;;;24.23;4.93;;;;;;;;;;5007244;28;20041;-66
2022/12/24 14:06:08;;;;;;;17.52;3.10;;;;;;;;;;5012255;28;20395;-66
2022/12/24 14:08:39;;;;;;;12.57;3.58;;;;;;;;;;4993654;28;20654;-65
2022/12/24 14:11:07;;;;;;;22.48;3.80;;;;;;;;;;5012307;28;20069;-66
2022/12/24 14:13:39;;;;;;;17.25;3.50;;;;;;;;;;5010813;28;20400;-66
2022/12/24 14:16:17;;;;;;;16.83;3.05;;;;;;;;;;5009656;28;20097;-66
2022/12/24 14:18:45;;;;;;;16.58;2.97;;;;;;;;;;5008397;28;20080;-66
2022/12/24 14:21:30;;;;;;;20.10;3.78;;;;;;;;;;5010180;28;20045;-66
2022/12/24 14:24:15;;;;;;;20.58;3.50;;;;;;;;;;5008109;28;20038;-66
2022/12/24 14:26:49;;;;;;;18.58;3.42;;;;;;;;;;5008926;28;20134;-66
2022/12/24 14:29:35;;;;;;;14.05;3.47;;;;;;;;;;5009072;28;20045;-66
2022/12/24 14:32:05;;;;;;;28.63;9.32;;;;;;;;;;5009578;28;20053;-67
2022/12/24 14:34:31;;;;;;;24.52;8.25;;;;;;;;;;5007469;28;20073;-67
2022/12/24 14:36:58;;;;;;;37.45;25.10;;;;;;;;;;5003219;28;20046;-67
2022/12/24 14:39:30;;;;;;;22.63;8.27;;;;;;;;;;5007412;28;20045;-66
2022/12/24 14:42:22;;;;;;;16.00;5.07;;;;;;;;;;5011927;28;20052;-67
2022/12/24 14:45:04;;;;;;;20.00;5.95;;;;;;;;;;5003543;28;20080;-67
2022/12/24 14:47:29;;;;;;;;;;;;;;;;;;5010145;28;20042;-68
2022/12/24 14:50:02;;;;;;;19.55;3.60;;;;;;;;;;5011113;28;19917;-67